Time;durP1;ratioP1;P1;durP2;ratioP2;P2;SDS_P1;SDS_P2;PMS_P1;PMS_P2;Temp;Humidity;BMP_temperature;BMP_pressure;BME280_temperature;BME280_humidity;BME280_pressure;Samples;Min_cycle;Max_cycle;Signal;HPM_P1;HPM_P2
2021/06/03 00:00:51;;;;;;;8.20;4.03;;;;;;;24.38;38.67;101750.69;5078953;28;20063;-82
2021/06/03 00:03:18;;;;;;;5.93;3.55;;;;;;;24.31;39.23;101755.53;5076645;28;20045;-82
2021/06/03 00:05:53;;;;;;;11.00;3.70;;;;;;;24.06;39.51;101747.66;5078413;28;20064;-82
2021/06/03 00:08:26;;;;;;;8.45;3.78;;;;;;;24.25;39.14;101740.16;5066005;28;20048;-84
2021/06/03 00:11:10;;;;;;;5.65;3.97;;;;;;;24.05;39.60;101738.94;5086069;28;20056;-83
2021/06/03 00:13:39;;;;;;;8.80;4.18;;;;;;;24.03;39.78;101746.13;5060044;28;20122;-83
2021/06/03 00:16:10;;;;;;;7.93;3.85;;;;;;;24.12;39.46;101753.38;5067814;28;20356;-83
2021/06/03 00:18:37;;;;;;;12.20;3.95;;;;;;;24.38;38.93;101746.25;5074084;28;20053;-83
2021/06/03 00:21:05;;;;;;;5.70;3.95;;;;;;;24.56;38.55;101735.34;5080122;28;20052;-83
2021/06/03 00:23:32;;;;;;;6.80;3.65;;;;;;;24.69;38.49;101733.47;5074664;28;20060;-83
2021/06/03 00:26:01;;;;;;;6.65;3.90;;;;;;;24.36;38.86;101740.28;5076100;28;20079;-83
2021/06/03 00:28:30;;;;;;;8.05;3.88;;;;;;;24.51;38.40;101738.31;5060686;28;20040;-83
2021/06/03 00:30:56;;;;;;;7.28;4.35;;;;;;;24.19;39.17;101740.59;5075716;28;20406;-83
2021/06/03 00:33:24;;;;;;;4.53;3.60;;;;;;;24.13;39.55;101741.88;5080658;28;20126;-83
2021/06/03 00:35:52;;;;;;;8.30;4.13;;;;;;;24.05;39.83;101746.84;5083300;28;20059;-83
2021/06/03 00:38:19;;;;;;;7.70;3.70;;;;;;;23.97;39.88;101748.34;5081312;28;20049;-83
2021/06/03 00:40:47;;;;;;;8.80;4.00;;;;;;;23.92;39.79;101742.56;5077894;28;20053;-83
2021/06/03 00:43:14;;;;;;;13.85;4.28;;;;;;;24.09;39.27;101752.72;5062003;28;20044;-83
2021/06/03 00:45:44;;;;;;;9.88;3.92;;;;;;;24.47;38.88;101752.66;5077667;28;20319;-83
2021/06/03 00:48:10;;;;;;;7.25;4.30;;;;;;;24.18;39.60;101748.63;5060834;28;20118;-83
2021/06/03 00:50:44;;;;;;;5.80;3.55;;;;;;;24.11;39.73;101748.22;5060516;28;20455;-83
2021/06/03 00:53:12;;;;;;;6.15;4.13;;;;;;;24.06;39.88;101752.94;5061503;28;20071;-83
2021/06/03 00:55:42;;;;;;;9.85;3.92;;;;;;;24.13;39.59;101749.78;5060013;28;20048;-83
2021/06/03 00:58:09;;;;;;;11.13;4.00;;;;;;;23.58;40.68;101737.00;5076981;28;20106;-83
2021/06/03 01:00:38;;;;;;;7.03;3.90;;;;;;;23.43;41.31;101744.16;5077203;28;20143;-84
2021/06/03 01:03:14;;;;;;;6.40;3.92;;;;;;;23.69;40.80;101752.91;5077445;28;20090;-82
2021/06/03 01:05:47;;;;;;;8.63;4.20;;;;;;;23.74;40.59;101745.53;5061516;28;20135;-82
2021/06/03 01:08:16;;;;;;;4.90;3.85;;;;;;;23.76;40.65;101751.50;5063651;28;20079;-83
2021/06/03 01:11:03;;;;;;;7.70;3.97;;;;;;;23.56;41.31;101752.84;5078739;28;20091;-83
2021/06/03 01:14:15;;;;;;;9.38;4.38;;;;;;;23.60;41.02;101741.19;5077413;28;20053;-83
2021/06/03 01:16:50;;;;;;;5.65;4.43;;;;;;;23.85;40.59;101745.63;5020366;28;20054;-82
2021/06/03 01:19:33;;;;;;;8.90;5.18;;;;;;;23.40;41.59;101754.84;5072105;28;20076;-82
2021/06/03 01:22:12;;;;;;;5.93;4.28;;;;;;;23.60;41.23;101743.81;5060475;28;20417;-82
2021/06/03 01:24:42;;;;;;;9.15;4.57;;;;;;;23.33;41.92;101750.97;5081400;28;20066;-82
2021/06/03 01:27:13;;;;;;;7.15;4.40;;;;;;;23.44;41.87;101742.38;5063854;28;20072;-82
2021/06/03 01:29:52;;;;;;;7.85;4.50;;;;;;;23.32;41.94;101738.75;5081507;28;20102;-82
2021/06/03 01:32:19;;;;;;;10.45;4.95;;;;;;;23.40;41.94;101741.72;5081281;28;20091;-82
2021/06/03 01:34:48;;;;;;;7.65;4.30;;;;;;;23.20;42.79;101739.59;5079140;28;20052;-82
2021/06/03 01:37:31;;;;;;;8.77;4.78;;;;;;;23.23;42.07;101731.50;5079177;28;20075;-82
2021/06/03 01:39:58;;;;;;;7.43;4.80;;;;;;;23.24;42.26;101741.09;5079547;28;20049;-82
2021/06/03 01:42:32;;;;;;;11.55;5.05;;;;;;;23.42;42.19;101737.19;5079018;28;20091;-82
2021/06/03 01:44:59;;;;;;;11.35;4.63;;;;;;;23.18;42.45;101728.34;5082196;28;20052;-82
2021/06/03 01:47:28;;;;;;;9.88;4.88;;;;;;;23.10;43.04;101732.34;5080287;28;20052;-82
2021/06/03 01:49:55;;;;;;;8.55;4.93;;;;;;;23.28;42.51;101729.44;5080304;28;20060;-81
2021/06/03 01:52:23;;;;;;;11.45;4.75;;;;;;;23.10;43.18;101724.47;5062594;28;20040;-82
2021/06/03 01:54:53;;;;;;;7.07;4.80;;;;;;;23.15;42.75;101725.94;5078960;28;20060;-84
2021/06/03 01:57:20;;;;;;;8.15;5.13;;;;;;;23.22;42.61;101727.19;5078286;28;20495;-83
2021/06/03 01:59:47;;;;;;;14.73;5.00;;;;;;;23.43;42.08;101717.88;5078723;28;20056;-83
2021/06/03 02:02:14;;;;;;;9.80;5.28;;;;;;;23.17;43.17;101724.03;5061805;28;20053;-82
2021/06/03 02:04:47;;;;;;;7.93;4.35;;;;;;;23.10;42.76;101724.47;5079321;28;20056;-83
2021/06/03 02:07:13;;;;;;;8.77;5.28;;;;;;;23.11;42.94;101728.75;5061744;28;20063;-82
2021/06/03 02:09:40;;;;;;;7.50;5.03;;;;;;;23.24;42.40;101733.22;5062613;28;20052;-82
2021/06/03 02:12:11;;;;;;;10.13;5.32;;;;;;;22.99;43.23;101732.22;5078887;28;20052;-82
2021/06/03 02:14:50;;;;;;;11.57;4.85;;;;;;;23.14;42.93;101733.00;5078807;28;20076;-82
2021/06/03 02:17:22;;;;;;;9.75;5.38;;;;;;;22.94;43.45;101734.31;5079659;28;20056;-82
2021/06/03 02:19:54;;;;;;;9.90;5.05;;;;;;;23.04;43.04;101726.66;5079212;28;20375;-82
2021/06/03 02:22:23;;;;;;;9.27;5.28;;;;;;;22.94;43.62;101730.84;5081073;28;20395;-83
2021/06/03 02:24:53;;;;;;;11.75;5.15;;;;;;;22.78;43.91;101728.34;5079482;28;20049;-82
2021/06/03 02:27:21;;;;;;;7.30;4.80;;;;;;;23.05;43.41;101726.56;5061811;28;20061;-83
2021/06/03 02:29:49;;;;;;;10.02;5.20;;;;;;;22.88;43.70;101737.28;5061508;28;20113;-83
2021/06/03 02:32:16;;;;;;;9.50;5.80;;;;;;;22.92;43.43;101722.22;5062619;28;20056;-81
2021/06/03 02:34:45;;;;;;;8.48;5.32;;;;;;;22.69;43.98;101734.19;5062145;28;20094;-81
2021/06/03 02:37:12;;;;;;;11.38;5.05;;;;;;;22.82;43.96;101730.66;5078594;28;20082;-83
2021/06/03 02:39:40;;;;;;;9.88;4.78;;;;;;;22.91;43.38;101724.00;5061544;28;20099;-81
2021/06/03 02:42:08;;;;;;;12.80;5.72;;;;;;;22.92;43.83;101728.31;5089438;28;20392;-83
2021/06/03 02:44:39;;;;;;;8.45;5.13;;;;;;;22.82;43.55;101732.44;5093714;28;20050;-81
2021/06/03 02:47:08;;;;;;;9.85;5.53;;;;;;;22.58;44.31;101733.09;5112188;28;20052;-82
2021/06/03 02:49:35;;;;;;;9.98;5.18;;;;;;;22.49;44.81;101741.56;5099881;28;20063;-82
2021/06/03 02:52:06;;;;;;;7.60;5.15;;;;;;;22.57;44.52;101734.06;5100313;28;20052;-82
2021/06/03 02:54:34;;;;;;;9.63;5.20;;;;;;;22.66;44.20;101727.38;5062448;28;20052;-81
2021/06/03 02:57:04;;;;;;;9.60;5.15;;;;;;;22.78;44.15;101733.59;5078992;28;20532;-82
2021/06/03 02:59:34;;;;;;;10.00;5.22;;;;;;;22.69;44.13;101739.44;5078557;28;20052;-82
2021/06/03 03:02:01;;;;;;;11.23;4.63;;;;;;;22.58;44.57;101735.72;5060249;28;20063;-82
2021/06/03 03:04:27;;;;;;;14.10;5.60;;;;;;;22.40;44.95;101739.56;5077237;28;20045;-81
2021/06/03 03:06:55;;;;;;;9.35;5.88;;;;;;;22.43;44.54;101739.34;5078827;28;20147;-82
2021/06/03 03:09:24;;;;;;;9.77;5.47;;;;;;;22.49;44.77;101740.72;5078436;28;20071;-82
2021/06/03 03:11:56;;;;;;;8.82;4.72;;;;;;;22.47;44.58;101740.00;5079461;28;20056;-82
2021/06/03 03:14:24;;;;;;;10.13;5.75;;;;;;;22.43;44.99;101739.34;5078706;28;20048;-81
2021/06/03 03:16:51;;;;;;;14.00;5.53;;;;;;;22.42;44.83;101744.69;5078142;28;20078;-81
2021/06/03 03:19:18;;;;;;;7.80;5.15;;;;;;;22.21;45.09;101749.53;5060139;28;20049;-82
2021/06/03 03:21:44;;;;;;;12.00;5.60;;;;;;;22.28;45.39;101743.78;5059085;28;20370;-82
2021/06/03 03:24:11;;;;;;;7.53;5.43;;;;;;;21.95;45.85;101741.44;5076015;28;20056;-83
2021/06/03 03:26:38;;;;;;;7.63;4.85;;;;;;;22.27;45.32;101738.66;5076559;28;20107;-85
2021/06/03 03:29:06;;;;;;;14.82;5.85;;;;;;;22.31;45.64;101743.59;5076532;28;20049;-82
2021/06/03 03:31:33;;;;;;;8.45;5.85;;;;;;;22.04;45.76;101753.16;5059713;28;20405;-83
2021/06/03 03:34:05;;;;;;;10.43;5.53;;;;;;;22.27;45.50;101759.63;5076989;28;20289;-83
2021/06/03 03:36:32;;;;;;;10.90;5.28;;;;;;;22.00;46.08;101755.13;5076051;28;20292;-83
2021/06/03 03:38:59;;;;;;;6.95;5.88;;;;;;;22.13;45.94;101754.41;5081803;28;20079;-82
2021/06/03 03:41:26;;;;;;;9.18;6.05;;;;;;;21.74;47.05;101754.09;5076543;28;20060;-82
2021/06/03 03:43:53;;;;;;;11.75;5.55;;;;;;;21.63;47.04;101761.78;5076606;28;20429;-84
2021/06/03 03:46:19;;;;;;;8.25;5.78;;;;;;;22.06;45.90;101765.25;5060092;28;20052;-83
2021/06/03 03:48:46;;;;;;;10.90;5.15;;;;;;;22.00;46.25;101762.97;5060349;28;20079;-82
2021/06/03 03:51:14;;;;;;;8.68;5.40;;;;;;;22.22;46.03;101766.94;5075819;28;20045;-82
2021/06/03 03:53:43;;;;;;;9.55;5.40;;;;;;;22.09;46.12;101775.53;5076923;28;20341;-83
2021/06/03 03:56:11;;;;;;;10.25;5.78;;;;;;;22.34;45.46;101781.91;5075685;28;20295;-83
2021/06/03 03:58:41;;;;;;;9.98;5.57;;;;;;;22.07;46.06;101780.03;5076114;28;20433;-83
2021/06/03 04:01:09;;;;;;;14.60;6.53;;;;;;;22.23;45.87;101774.72;5074209;28;20133;-83
2021/06/03 04:03:37;;;;;;;8.40;5.78;;;;;;;22.49;45.29;101772.22;5075647;28;20099;-83
2021/06/03 04:06:05;;;;;;;10.43;5.78;;;;;;;22.48;45.21;101775.78;5075743;28;20044;-82
2021/06/03 04:08:32;;;;;;;12.00;5.93;;;;;;;22.10;46.29;101777.22;5076735;28;20076;-82
2021/06/03 04:11:00;;;;;;;6.85;5.30;;;;;;;22.33;45.89;101782.84;5076195;28;20063;-82
2021/06/03 04:13:28;;;;;;;11.98;6.20;;;;;;;22.42;45.46;101778.81;5076509;28;20054;-82
2021/06/03 04:15:55;;;;;;;11.10;5.93;;;;;;;22.97;44.22;101777.91;5079056;28;20048;-82
2021/06/03 04:18:25;;;;;;;16.98;5.97;;;;;;;23.23;43.32;101776.16;5061156;28;20222;-82
2021/06/03 04:20:52;;;;;;;14.73;6.35;;;;;;;23.18;43.67;101780.88;5077300;28;20049;-83
2021/06/03 04:23:24;;;;;;;10.73;5.75;;;;;;;22.68;44.56;101783.22;5077478;28;20088;-83
2021/06/03 04:25:51;;;;;;;11.45;5.50;;;;;;;22.96;43.68;101784.09;5052832;28;20045;-82
2021/06/03 04:28:21;;;;;;;12.07;5.97;;;;;;;22.66;44.53;101784.28;5042119;28;20045;-82
2021/06/03 04:30:48;;;;;;;9.43;5.95;;;;;;;22.63;44.79;101794.00;5039543;28;20073;-82
2021/06/03 04:33:27;;;;;;;11.32;5.88;;;;;;;22.83;44.69;101782.22;5055299;28;20140;-82
2021/06/03 04:35:56;;;;;;;9.77;5.32;;;;;;;22.86;44.12;101774.16;5074314;28;20063;-82
2021/06/03 04:38:23;;;;;;;12.80;5.55;;;;;;;22.14;46.10;101771.81;5058845;28;20083;-82
2021/06/03 04:40:56;;;;;;;10.25;6.20;;;;;;;22.82;44.81;101777.91;5077585;28;20068;-82
2021/06/03 04:43:27;;;;;;;10.80;6.30;;;;;;;22.68;45.23;101764.84;5064801;28;20053;-82
2021/06/03 04:45:57;;;;;;;10.75;5.70;;;;;;;22.72;45.22;101770.75;5060892;28;20113;-82
2021/06/03 04:48:26;;;;;;;17.00;6.05;;;;;;;22.90;44.18;101769.59;5076524;28;20063;-82
2021/06/03 04:51:06;;;;;;;10.52;5.43;;;;;;;23.09;44.06;101767.44;5073870;28;20323;-81
2021/06/03 04:53:33;;;;;;;10.23;6.40;;;;;;;22.93;44.35;101782.50;5074571;28;20060;-82
2021/06/03 04:56:00;;;;;;;11.93;5.85;;;;;;;23.03;44.04;101778.31;5058713;28;20318;-82
2021/06/03 04:58:28;;;;;;;11.43;6.35;;;;;;;23.55;42.94;101785.34;5060909;28;20044;-81
2021/06/03 05:00:55;;;;;;;9.98;6.63;;;;;;;23.28;43.74;101788.06;5059363;28;20069;-82
2021/06/03 05:03:22;;;;;;;10.70;5.70;;;;;;;23.55;42.92;101792.41;5075054;28;20127;-82
2021/06/03 05:05:57;;;;;;;10.20;5.45;;;;;;;23.81;42.43;101794.09;5075714;28;20114;-83
2021/06/03 05:08:24;;;;;;;16.35;5.68;;;;;;;23.87;42.41;101798.13;5060055;28;20079;-83
2021/06/03 05:10:56;;;;;;;10.85;6.20;;;;;;;24.38;40.76;101796.25;5058470;28;20413;-83
2021/06/03 05:13:22;;;;;;;16.73;5.80;;;;;;;24.18;40.99;101815.22;5060680;28;20179;-83
2021/06/03 05:16:00;;;;;;;9.25;5.57;;;;;;;24.66;40.41;101805.66;5075489;28;20051;-83
2021/06/03 05:18:30;;;;;;;9.38;5.35;;;;;;;24.89;40.17;101805.78;5075269;28;20059;-82
2021/06/03 05:20:57;;;;;;;8.82;5.22;;;;;;;24.49;40.13;101811.28;5063435;28;20365;-82
2021/06/03 05:23:24;;;;;;;9.10;5.32;;;;;;;25.43;38.86;101805.28;5053413;28;20075;-83
2021/06/03 05:25:51;;;;;;;11.75;5.60;;;;;;;25.86;38.17;101796.69;5053858;28;20079;-83
2021/06/03 05:28:23;;;;;;;10.27;5.32;;;;;;;25.83;38.13;101812.78;5038547;28;20053;-82
2021/06/03 05:30:50;;;;;;;9.38;6.05;;;;;;;25.10;39.18;101814.75;5053547;28;20333;-82
2021/06/03 05:33:17;;;;;;;9.35;5.57;;;;;;;25.81;38.47;101815.53;5036879;28;20484;-83
2021/06/03 05:35:44;;;;;;;15.27;6.18;;;;;;;25.32;39.45;101829.78;5054799;28;20240;-82
2021/06/03 05:38:10;;;;;;;9.10;5.68;;;;;;;26.24;37.43;101819.25;5054716;28;20109;-82
2021/06/03 05:40:38;;;;;;;8.05;5.93;;;;;;;25.76;38.12;101830.03;5043762;28;20353;-82
2021/06/03 05:43:06;;;;;;;9.50;5.72;;;;;;;25.72;38.60;101824.13;5056060;28;20118;-82
2021/06/03 05:45:34;;;;;;;9.38;6.00;;;;;;;26.03;37.97;101819.16;5039002;28;20049;-82
2021/06/03 05:48:10;;;;;;;12.07;6.43;;;;;;;26.11;37.84;101811.47;5054955;28;20061;-82
2021/06/03 05:50:38;;;;;;;9.85;5.43;;;;;;;26.31;37.02;101817.81;5058657;28;20083;-82
2021/06/03 05:53:06;;;;;;;10.75;5.35;;;;;;;26.61;36.71;101825.94;5052672;28;20053;-82
2021/06/03 05:55:33;;;;;;;8.48;5.53;;;;;;;25.63;38.36;101825.69;5068250;28;20063;-81
2021/06/03 05:58:00;;;;;;;15.63;6.25;;;;;;;26.24;37.53;101819.25;5057838;28;20045;-82
2021/06/03 06:00:29;;;;;;;11.98;6.22;;;;;;;26.61;36.57;101841.78;5073259;28;20040;-82
2021/06/03 06:03:01;;;;;;;10.38;5.72;;;;;;;26.63;36.33;101825.81;5073065;28;20056;-83
2021/06/03 06:08:36;;;;;;;13.32;5.88;;;;;;;26.93;36.26;101835.69;5070449;28;20055;-83
2021/06/03 06:11:04;;;;;;;7.47;6.00;;;;;;;26.70;36.48;101835.78;5065898;28;20053;-82
2021/06/03 06:13:32;;;;;;;8.77;5.63;;;;;;;27.09;35.89;101846.72;5042339;28;20067;-82
2021/06/03 06:16:02;;;;;;;11.50;5.18;;;;;;;27.62;35.12;101846.69;5040899;28;20172;-83
2021/06/03 06:18:30;;;;;;;9.68;5.50;;;;;;;27.40;35.42;101847.66;5052222;28;20052;-82
2021/06/03 06:20:57;;;;;;;9.80;5.15;;;;;;;27.58;35.17;101847.06;5071496;28;20055;-83
2021/06/03 06:23:46;;;;;;;12.48;5.78;;;;;;;27.73;35.11;101852.91;5057251;28;20500;-81
2021/06/03 06:26:13;;;;;;;12.52;5.07;;;;;;;28.04;34.65;101854.59;5063255;28;20074;-81
2021/06/03 06:28:40;;;;;;;9.15;5.03;;;;;;;28.95;33.53;101866.03;5071506;28;20311;-83
2021/06/03 06:31:07;;;;;;;9.38;5.05;;;;;;;30.12;31.63;101856.09;5072827;28;20155;-83
2021/06/03 06:33:37;;;;;;;7.95;5.13;;;;;;;29.60;32.40;101861.00;5089717;28;20332;-83
2021/06/03 06:36:07;;;;;;;14.65;5.32;;;;;;;27.88;34.59;101854.25;5073047;28;20418;-83
2021/06/03 06:38:34;;;;;;;8.52;6.13;;;;;;;26.46;37.70;101860.66;5091049;28;20436;-82
2021/06/03 06:41:01;;;;;;;13.15;5.60;;;;;;;26.75;37.11;101853.06;5090486;28;20086;-82
2021/06/03 06:43:39;;;;;;;6.57;5.45;;;;;;;27.91;35.64;101853.97;5066709;28;20417;-82
2021/06/03 06:46:07;;;;;;;10.50;5.80;;;;;;;28.93;34.04;101862.66;5052261;28;20484;-83
2021/06/03 06:48:35;;;;;;;9.73;5.72;;;;;;;29.37;32.65;101855.13;5068627;28;20041;-83
2021/06/03 06:51:04;;;;;;;8.95;5.43;;;;;;;29.08;32.54;101863.94;5050695;28;20044;-83
2021/06/03 06:53:32;;;;;;;8.82;5.20;;;;;;;28.21;34.48;101864.56;5066695;28;20052;-83
2021/06/03 06:56:00;;;;;;;10.38;5.50;;;;;;;28.14;34.96;101876.63;5065708;28;20049;-83
2021/06/03 06:58:28;;;;;;;11.20;5.30;;;;;;;28.37;34.64;101869.38;5087486;28;20044;-82
2021/06/03 07:00:57;;;;;;;12.68;5.97;;;;;;;28.11;35.18;101873.41;5089096;28;20402;-83
2021/06/03 07:03:28;;;;;;;10.38;5.80;;;;;;;27.56;36.19;101864.88;5076576;28;20056;-82
2021/06/03 07:06:05;;;;;;;8.65;5.60;;;;;;;27.00;37.17;101873.88;5066605;28;20040;-83
2021/06/03 07:08:35;;;;;;;16.02;5.78;;;;;;;27.16;37.37;101861.09;5085168;28;20052;-83
2021/06/03 07:11:02;;;;;;;11.70;5.50;;;;;;;27.75;36.21;101872.13;5076315;28;20456;-83
2021/06/03 07:13:29;;;;;;;8.30;5.38;;;;;;;27.36;37.24;101869.19;5082098;28;20052;-82
2021/06/03 07:15:56;;;;;;;8.40;5.35;;;;;;;27.65;36.77;101870.22;5084727;28;20048;-82
2021/06/03 07:18:26;;;;;;;9.43;5.40;;;;;;;28.83;35.29;101872.41;5058719;28;20045;-82
2021/06/03 07:20:58;;;;;;;9.68;5.18;;;;;;;28.69;34.92;101874.47;5082664;28;20152;-83
2021/06/03 07:23:27;;;;;;;10.35;5.07;;;;;;;28.90;34.86;101874.38;5071178;28;20048;-82
2021/06/03 07:25:59;;;;;;;9.20;5.05;;;;;;;29.35;33.30;101873.00;5078387;28;20497;-83
2021/06/03 07:28:27;;;;;;;9.93;5.32;;;;;;;28.78;34.21;101874.63;5057363;28;20048;-83
2021/06/03 07:30:55;;;;;;;8.95;5.18;;;;;;;29.13;33.73;101864.34;5075919;28;20157;-82
2021/06/03 07:33:25;;;;;;;10.40;4.97;;;;;;;28.77;34.25;101878.25;5082728;28;20363;-83
2021/06/03 07:35:59;;;;;;;8.65;5.05;;;;;;;28.98;34.59;101866.59;5066936;28;20156;-83
2021/06/03 07:38:36;;;;;;;7.60;5.13;;;;;;;29.15;34.60;101862.41;5072983;28;20044;-83
2021/06/03 07:41:04;;;;;;;9.82;5.68;;;;;;;29.28;33.74;101864.75;5063989;28;20406;-84
2021/06/03 07:43:33;;;;;;;10.77;4.85;;;;;;;29.11;34.57;101870.78;5067423;28;20063;-84
2021/06/03 07:46:00;;;;;;;9.70;5.93;;;;;;;28.44;35.34;101870.50;5067238;28;20437;-83
2021/06/03 07:48:29;;;;;;;7.53;5.45;;;;;;;28.88;35.16;101875.47;5102592;28;20156;-82
2021/06/03 07:51:00;;;;;;;8.90;5.32;;;;;;;29.07;34.62;101869.38;5085746;28;20055;-83
2021/06/03 07:53:31;;;;;;;12.20;5.60;;;;;;;29.10;34.88;101875.25;5081995;28;20066;-83
2021/06/03 07:56:02;;;;;;;6.78;5.40;;;;;;;28.81;35.14;101874.38;5059511;28;20087;-83
2021/06/03 07:58:32;;;;;;;14.45;5.60;;;;;;;27.68;37.11;101875.25;5071788;28;20047;-83
2021/06/03 08:01:04;;;;;;;10.32;5.57;;;;;;;27.53;37.46;101878.38;5076051;28;20040;-83
2021/06/03 08:03:32;;;;;;;7.88;5.07;;;;;;;28.06;36.59;101867.69;5066970;28;20053;-83
2021/06/03 08:06:00;;;;;;;8.15;5.32;;;;;;;27.73;37.76;101877.56;5069747;28;20044;-82
2021/06/03 08:08:27;;;;;;;10.10;5.45;;;;;;;27.28;38.42;101876.91;5067837;28;20059;-83
2021/06/03 08:10:59;;;;;;;10.35;5.85;;;;;;;26.98;39.39;101883.72;5066588;28;20056;-83
2021/06/03 08:13:41;;;;;;;17.95;6.25;;;;;;;27.26;39.01;101884.13;5054033;28;20066;-83
2021/06/03 08:16:09;;;;;;;8.25;5.32;;;;;;;27.43;40.07;101886.22;5070755;28;20052;-80
2021/06/03 08:18:35;;;;;;;8.50;5.50;;;;;;;27.64;39.74;101889.72;5070829;28;20266;-84
2021/06/03 08:21:04;;;;;;;13.90;5.15;;;;;;;27.55;40.08;101895.78;5071554;28;20273;-83
2021/06/03 08:23:34;;;;;;;10.30;5.65;;;;;;;27.35;38.98;101888.66;5075395;28;20043;-83
2021/06/03 08:26:01;;;;;;;8.32;5.85;;;;;;;26.87;40.39;101889.03;5093166;28;20071;-82
2021/06/03 08:28:29;;;;;;;8.85;6.35;;;;;;;27.13;40.36;101893.09;5091129;28;20418;-82
2021/06/03 08:30:58;;;;;;;9.77;5.45;;;;;;;27.62;39.06;101890.78;5056944;28;20059;-82
2021/06/03 08:33:29;;;;;;;10.07;6.55;;;;;;;27.62;38.52;101896.94;5059811;28;20185;-83
2021/06/03 08:36:00;;;;;;;11.18;5.95;;;;;;;27.49;39.69;101896.28;5078622;28;20063;-84
2021/06/03 08:38:29;;;;;;;14.38;6.15;;;;;;;27.63;39.05;101900.44;5080811;28;20063;-83
2021/06/03 08:41:01;;;;;;;8.48;6.03;;;;;;;27.39;39.30;101898.88;5076788;28;20139;-82
2021/06/03 08:43:32;;;;;;;11.15;5.45;;;;;;;27.51;39.16;101891.69;5077614;28;20068;-82
2021/06/03 08:46:01;;;;;;;10.50;6.18;;;;;;;27.55;39.13;101897.59;5059270;28;20063;-81
2021/06/03 08:48:39;;;;;;;9.65;6.30;;;;;;;27.91;37.60;101901.59;5076374;28;20099;-83
2021/06/03 08:51:06;;;;;;;14.00;6.07;;;;;;;28.07;37.80;101896.69;5080353;28;20052;-83
2021/06/03 08:53:33;;;;;;;9.48;5.65;;;;;;;27.52;37.85;101900.47;5077229;28;20245;-82
2021/06/03 08:56:14;;;;;;;7.80;5.68;;;;;;;27.19;38.77;101897.03;5079544;28;20053;-83
2021/06/03 08:58:47;;;;;;;8.77;6.10;;;;;;;27.61;38.28;101897.91;5060849;28;20179;-84
2021/06/03 09:01:15;;;;;;;11.75;5.68;;;;;;;27.18;38.96;101903.25;5063250;28;20059;-83
2021/06/03 09:03:47;;;;;;;8.15;5.50;;;;;;;27.69;38.44;101902.56;5081908;28;20132;-83
2021/06/03 09:06:18;;;;;;;12.70;6.10;;;;;;;27.60;38.59;101893.56;5087955;28;20052;-83
2021/06/03 09:08:57;;;;;;;9.15;6.00;;;;;;;27.53;38.53;101888.94;5088365;28;20106;-83
2021/06/03 09:11:45;;;;;;;12.13;6.20;;;;;;;27.66;38.58;101898.34;5084741;28;20052;-83
2021/06/03 09:14:16;;;;;;;10.20;6.57;;;;;;;27.71;38.81;101905.94;5078596;28;20421;-83
2021/06/03 09:16:56;;;;;;;9.85;5.53;;;;;;;27.85;38.70;101905.59;5060747;28;20044;-84
2021/06/03 09:19:23;;;;;;;9.18;5.35;;;;;;;27.83;38.78;101906.72;5077375;28;20082;-84
2021/06/03 09:21:51;;;;;;;9.60;5.72;;;;;;;27.82;38.93;101905.03;5073340;28;20108;-84
2021/06/03 09:24:20;;;;;;;20.30;5.78;;;;;;;28.04;38.53;101898.75;5076229;28;20056;-83
2021/06/03 09:26:53;;;;;;;9.93;5.47;;;;;;;28.24;37.81;101906.63;5077933;28;20064;-84
2021/06/03 09:29:30;;;;;;;8.68;5.28;;;;;;;28.63;36.99;101911.28;5079396;28;20044;-83
2021/06/03 09:32:12;;;;;;;9.60;5.70;;;;;;;28.42;37.94;101911.34;5082543;28;20049;-82
2021/06/03 09:34:40;;;;;;;14.10;6.22;;;;;;;28.43;36.84;101916.50;5080195;28;20060;-83
2021/06/03 09:37:16;;;;;;;22.00;6.10;;;;;;;28.31;37.52;101912.25;5076318;28;20370;-83
2021/06/03 09:39:52;;;;;;;10.40;5.32;;;;;;;28.70;37.09;101909.78;5074879;28;20052;-83
2021/06/03 09:42:21;;;;;;;15.07;5.85;;;;;;;28.20;38.10;101912.34;5075138;28;20052;-84
2021/06/03 09:44:55;;;;;;;15.55;5.85;;;;;;;27.80;39.21;101907.81;5077842;28;20056;-83
2021/06/03 09:47:38;;;;;;;12.70;5.85;;;;;;;27.91;38.60;101914.81;5078582;28;20045;-83
2021/06/03 09:50:10;;;;;;;11.38;6.13;;;;;;;28.08;38.05;101914.25;5062225;28;20060;-83
2021/06/03 09:52:38;;;;;;;8.10;5.80;;;;;;;28.39;38.15;101924.84;5058975;28;20163;-82
2021/06/03 09:55:13;;;;;;;6.95;5.15;;;;;;;28.03;38.38;101924.38;5076893;28;20061;-83
2021/06/03 09:57:52;;;;;;;8.70;5.30;;;;;;;28.41;37.77;101918.47;5086300;28;20138;-84
2021/06/03 10:00:23;;;;;;;10.60;5.78;;;;;;;28.74;37.33;101916.47;5079374;28;20120;-83
2021/06/03 10:02:58;;;;;;;8.20;4.78;;;;;;;29.45;36.56;101922.44;5077723;28;20052;-83
2021/06/03 10:05:26;;;;;;;10.70;5.65;;;;;;;29.40;35.98;101923.81;5096992;28;20157;-82
2021/06/03 10:08:01;;;;;;;16.80;5.28;;;;;;;29.28;36.59;101915.16;5097358;28;20090;-84
2021/06/03 10:10:44;;;;;;;14.57;5.13;;;;;;;29.87;35.33;101919.47;5097594;28;20266;-84
2021/06/03 10:13:12;;;;;;;8.48;4.97;;;;;;;30.38;34.54;101925.34;5103690;28;20111;-85
2021/06/03 10:15:45;;;;;;;8.40;5.00;;;;;;;30.65;33.90;101924.50;5078466;28;20053;-83
2021/06/03 10:18:27;;;;;;;10.07;4.85;;;;;;;31.50;32.33;101925.91;5061457;28;20060;-84
2021/06/03 10:20:56;;;;;;;8.13;4.65;;;;;;;31.15;33.26;101932.88;5060491;28;20044;-84
2021/06/03 10:23:46;;;;;;;9.55;5.57;;;;;;;31.40;32.89;101933.13;5076864;28;20437;-84
2021/06/03 10:26:15;;;;;;;11.10;4.90;;;;;;;31.00;33.03;101934.41;5076207;28;20056;-83
2021/06/03 10:28:44;;;;;;;8.77;5.55;;;;;;;31.37;33.37;101936.09;5076297;28;20079;-84
2021/06/03 10:31:15;;;;;;;11.57;5.32;;;;;;;31.79;31.63;101939.75;5062072;28;20483;-85
2021/06/03 10:33:44;;;;;;;6.88;5.22;;;;;;;31.43;32.35;101941.66;5067164;28;20282;-84
2021/06/03 10:36:13;;;;;;;10.40;4.50;;;;;;;31.21;33.08;101940.25;5089793;28;20050;-82
2021/06/03 10:38:43;;;;;;;8.85;5.50;;;;;;;31.13;32.57;101939.31;5081207;28;20517;-83
2021/06/03 10:41:12;;;;;;;11.35;5.63;;;;;;;30.46;33.23;101944.88;5061741;28;20044;-84
2021/06/03 10:43:39;;;;;;;9.90;5.40;;;;;;;29.87;34.88;101950.50;5077542;28;20040;-84
2021/06/03 10:46:09;;;;;;;8.40;4.90;;;;;;;29.97;34.85;101961.94;5068860;28;20056;-84
2021/06/03 10:48:36;;;;;;;10.02;5.05;;;;;;;29.70;35.03;101960.00;5071591;28;20067;-82
2021/06/03 10:51:09;;;;;;;11.98;5.32;;;;;;;29.79;34.73;101951.19;5078700;28;20178;-83
2021/06/03 10:53:45;;;;;;;6.45;4.95;;;;;;;30.06;34.42;101946.94;5068298;28;20102;-82
2021/06/03 10:56:19;;;;;;;17.00;6.13;;;;;;;29.91;34.70;101957.19;5067644;28;20052;-84
2021/06/03 10:58:49;;;;;;;9.55;5.70;;;;;;;30.04;34.70;101952.41;5053049;28;20310;-83
2021/06/03 11:01:27;;;;;;;9.82;5.40;;;;;;;30.17;34.79;101945.00;5072439;28;20071;-83
2021/06/03 11:03:59;;;;;;;9.65;5.50;;;;;;;30.12;34.99;101946.38;5078962;28;20256;-83
2021/06/03 11:06:29;;;;;;;14.27;5.80;;;;;;;30.10;35.05;101946.50;5067656;28;20044;-82
2021/06/03 11:09:06;;;;;;;9.90;5.38;;;;;;;30.08;35.21;101948.47;5056668;28;20219;-83
2021/06/03 11:11:47;;;;;;;13.70;6.22;;;;;;;29.74;35.97;101948.97;5075331;28;20044;-83
2021/06/03 11:14:20;;;;;;;9.98;5.20;;;;;;;29.80;36.06;101944.06;5076746;28;20245;-84
2021/06/03 11:16:55;;;;;;;9.88;5.63;;;;;;;29.82;36.20;101945.63;5070575;28;20044;-85
2021/06/03 11:19:24;;;;;;;12.67;6.63;;;;;;;30.31;35.23;101945.47;5096526;28;20048;-83
2021/06/03 11:22:06;;;;;;;8.32;6.40;;;;;;;30.14;35.57;101942.63;5077439;28;20429;-84
2021/06/03 11:24:36;;;;;;;14.57;7.00;;;;;;;30.19;35.80;101942.19;5078102;28;20080;-84
2021/06/03 11:27:08;;;;;;;13.38;7.18;;;;;;;30.15;35.39;101944.28;5076611;28;20056;-84
2021/06/03 11:29:42;;;;;;;16.92;7.25;;;;;;;30.94;34.13;101946.47;5289305;22;20065;-84
2021/06/03 11:32:25;;;;;;;12.48;6.85;;;;;;;31.73;33.09;101956.34;5062267;28;20048;-85
2021/06/03 11:35:10;;;;;;;15.70;7.30;;;;;;;33.08;31.01;101950.38;5075020;28;20074;-83
2021/06/03 11:37:45;;;;;;;10.57;7.03;;;;;;;33.84;29.89;101946.56;5062868;28;20052;-85
2021/06/03 11:40:20;;;;;;;15.77;6.72;;;;;;;35.19;27.91;101950.03;5057133;28;20120;-83